createdAt,value
2023-03-27T00:01:27.378Z,10.30
2023-03-27T00:03:55.653Z,10.30
2023-03-27T00:06:25.098Z,10.27
2023-03-27T00:08:53.711Z,10.25
2023-03-27T00:11:21.949Z,10.24
2023-03-27T00:13:55.078Z,10.24
2023-03-27T00:16:25.360Z,10.24
2023-03-27T00:18:54.375Z,10.23
2023-03-27T00:21:22.936Z,10.22
2023-03-27T00:23:51.331Z,10.23
2023-03-27T00:26:20.367Z,10.25
2023-03-27T00:28:48.318Z,10.23
2023-03-27T00:31:16.863Z,10.23
2023-03-27T00:33:45.272Z,10.24
2023-03-27T00:36:13.360Z,10.24
2023-03-27T00:38:41.621Z,10.28
2023-03-27T00:41:10.247Z,10.30
2023-03-27T00:43:43.665Z,10.33
2023-03-27T00:46:14.970Z,10.36
2023-03-27T00:48:47.039Z,10.40
2023-03-27T00:51:15.565Z,10.44
2023-03-27T00:53:44.278Z,10.46
2023-03-27T00:56:12.673Z,10.50
2023-03-27T00:58:42.627Z,10.55
2023-03-27T01:01:12.582Z,10.60
2023-03-27T01:03:42.466Z,10.64
2023-03-27T01:06:14.154Z,10.66
2023-03-27T01:08:44.001Z,10.68
2023-03-27T01:11:30.827Z,10.71
2023-03-27T01:14:17.466Z,10.74
2023-03-27T01:17:06.580Z,10.77
2023-03-27T01:19:46.795Z,10.80
2023-03-27T01:22:44.114Z,10.77
2023-03-27T01:25:17.724Z,10.75
2023-03-27T01:27:58.644Z,10.71
2023-03-27T01:30:30.161Z,10.70
2023-03-27T01:33:26.673Z,10.69
2023-03-27T01:35:57.848Z,10.67
2023-03-27T01:38:42.326Z,10.67
2023-03-27T01:41:25.756Z,10.68
2023-03-27T01:43:57.894Z,10.70
2023-03-27T01:46:32.142Z,10.71
2023-03-27T01:49:03.006Z,10.72
2023-03-27T01:51:34.128Z,10.73
2023-03-27T01:54:05.820Z,10.72
2023-03-27T01:56:37.669Z,10.73
2023-03-27T01:59:11.298Z,10.75
2023-03-27T02:01:43.069Z,10.78
2023-03-27T02:04:14.448Z,10.80
2023-03-27T02:06:48.824Z,10.83
2023-03-27T02:09:24.033Z,10.86
2023-03-27T02:11:57.634Z,10.88
2023-03-27T02:14:29.131Z,10.90
2023-03-27T02:16:59.871Z,10.90
2023-03-27T02:19:36.011Z,10.89
2023-03-27T02:22:05.192Z,10.85
2023-03-27T02:24:46.325Z,10.78
2023-03-27T02:27:22.409Z,10.70
2023-03-27T02:29:56.270Z,10.64
2023-03-27T02:32:40.355Z,10.57
2023-03-27T02:35:17.612Z,10.53
2023-03-27T02:38:24.378Z,10.50
2023-03-27T02:40:58.065Z,10.50
2023-03-27T02:43:49.424Z,10.54
2023-03-27T02:46:41.621Z,10.56
2023-03-27T02:49:13.621Z,10.53
2023-03-27T02:51:48.007Z,10.47
2023-03-27T02:54:19.498Z,10.40
2023-03-27T02:56:51.786Z,10.35
2023-03-27T02:59:27.573Z,10.36
2023-03-27T03:01:55.681Z,10.36
2023-03-27T03:04:42.099Z,10.36
2023-03-27T03:07:11.426Z,10.35
2023-03-27T03:09:41.336Z,10.34
2023-03-27T03:12:09.762Z,10.34
2023-03-27T03:14:45.892Z,10.37
2023-03-27T03:17:14.500Z,10.39
2023-03-27T03:19:42.322Z,10.39
2023-03-27T03:22:10.101Z,10.39
2023-03-27T03:24:42.474Z,10.39
2023-03-27T03:27:14.509Z,10.38
2023-03-27T03:29:50.822Z,10.37
2023-03-27T03:32:23.989Z,10.34
2023-03-27T03:34:53.206Z,10.31
2023-03-27T03:37:21.543Z,10.27
2023-03-27T03:39:49.675Z,10.24
2023-03-27T03:42:22.762Z,10.22
2023-03-27T03:44:53.131Z,10.17
2023-03-27T03:47:22.659Z,10.12
2023-03-27T03:49:51.007Z,10.10
2023-03-27T03:52:19.086Z,10.10
2023-03-27T03:54:46.993Z,10.08
2023-03-27T03:57:15.390Z,10.05
2023-03-27T03:59:44.025Z,10.05
2023-03-27T04:02:31.021Z,10.06
2023-03-27T04:05:08.886Z,10.06
2023-03-27T04:07:40.189Z,10.08
2023-03-27T04:10:22.922Z,10.08
2023-03-27T04:12:51.346Z,10.07
2023-03-27T04:15:27.683Z,10.07
2023-03-27T04:18:33.027Z,10.05
2023-03-27T04:21:03.089Z,10.04
2023-03-27T04:23:31.093Z,10.04
2023-03-27T04:26:00.421Z,10.03
2023-03-27T04:28:34.669Z,10.02
2023-03-27T04:31:14.254Z,10.00
2023-03-27T04:34:04.901Z,9.98
2023-03-27T04:36:51.184Z,9.97
2023-03-27T04:39:24.147Z,9.97
2023-03-27T04:41:53.982Z,9.97
2023-03-27T04:44:22.558Z,9.97
2023-03-27T04:46:50.513Z,9.99
2023-03-27T04:49:20.239Z,10.03
2023-03-27T04:51:56.505Z,10.07
2023-03-27T04:54:27.545Z,10.10
2023-03-27T04:56:55.812Z,10.14
2023-03-27T04:59:23.955Z,10.19
2023-03-27T05:02:17.446Z,10.25
2023-03-27T05:05:10.346Z,10.29
2023-03-27T05:07:39.004Z,10.31
2023-03-27T05:10:07.408Z,10.33
2023-03-27T05:12:35.681Z,10.35
2023-03-27T05:15:06.355Z,10.37
2023-03-27T05:17:41.238Z,10.37
2023-03-27T05:20:12.649Z,10.39
2023-03-27T05:22:44.201Z,10.42
2023-03-27T05:25:28.390Z,10.44
2023-03-27T05:27:57.223Z,10.45
2023-03-27T05:30:28.429Z,10.46
2023-03-27T05:33:25.875Z,10.46
2023-03-27T05:35:55.243Z,10.46
2023-03-27T05:38:24.708Z,10.46
2023-03-27T05:41:04.966Z,10.47
2023-03-27T05:43:35.796Z,10.48
2023-03-27T05:46:04.496Z,10.50
2023-03-27T05:48:32.543Z,10.53
2023-03-27T05:51:01.663Z,10.55
2023-03-27T05:53:29.865Z,10.60
2023-03-27T05:56:13.484Z,10.63
2023-03-27T05:58:52.295Z,10.64
2023-03-27T06:01:21.141Z,10.65
2023-03-27T06:03:55.569Z,10.66
2023-03-27T06:06:28.794Z,10.66
2023-03-27T06:08:59.490Z,10.66
2023-03-27T06:11:28.259Z,10.68
2023-03-27T06:13:58.693Z,10.70
2023-03-27T06:16:37.177Z,10.72
2023-03-27T06:19:28.412Z,10.75
2023-03-27T06:21:56.382Z,10.80
2023-03-27T06:24:24.727Z,10.83
2023-03-27T06:26:53.004Z,10.86
2023-03-27T06:29:21.759Z,10.89
2023-03-27T06:31:51.760Z,10.92
2023-03-27T06:34:25.124Z,10.95
2023-03-27T06:37:03.594Z,10.98
2023-03-27T06:39:37.443Z,11.02
2023-03-27T06:42:05.537Z,11.08
2023-03-27T06:44:45.470Z,11.12
2023-03-27T06:47:20.370Z,11.12
2023-03-27T06:50:21.389Z,11.13
2023-03-27T06:52:50.164Z,11.13
2023-03-27T06:55:38.514Z,11.10
2023-03-27T06:58:09.923Z,11.11
2023-03-27T07:00:39.206Z,11.09
2023-03-27T07:03:20.786Z,11.01
2023-03-27T07:06:19.331Z,10.90
2023-03-27T07:08:52.560Z,10.80
2023-03-27T07:11:20.686Z,10.75
2023-03-27T07:13:56.765Z,10.75
2023-03-27T07:16:28.892Z,10.74
2023-03-27T07:18:59.406Z,10.71
2023-03-27T07:21:29.904Z,10.71
2023-03-27T07:23:59.618Z,10.69
2023-03-27T07:26:33.834Z,10.66
2023-03-27T07:29:14.630Z,10.72
2023-03-27T07:31:57.714Z,10.77
2023-03-27T07:34:35.345Z,10.77
2023-03-27T07:37:23.847Z,10.83
2023-03-27T07:40:16.555Z,10.86
2023-03-27T07:42:53.606Z,10.91
2023-03-27T07:45:24.054Z,11.04
2023-03-27T07:47:56.482Z,11.22
2023-03-27T07:50:24.774Z,11.44
2023-03-27T07:52:52.660Z,11.64
2023-03-27T07:55:22.466Z,11.79
2023-03-27T07:58:07.258Z,11.85
2023-03-27T08:00:36.314Z,11.89
2023-03-27T08:03:14.635Z,11.90
2023-03-27T08:05:56.232Z,11.92
2023-03-27T08:08:25.326Z,11.96
2023-03-27T08:10:58.155Z,11.99
2023-03-27T08:13:30.724Z,12.06
2023-03-27T08:16:07.372Z,12.13
2023-03-27T08:18:36.960Z,12.20
2023-03-27T08:21:06.710Z,12.17
2023-03-27T08:23:36.120Z,12.19
2023-03-27T08:26:09.961Z,12.21
2023-03-27T08:28:44.984Z,12.23
2023-03-27T08:31:14.687Z,12.24
2023-03-27T08:33:43.321Z,12.19
2023-03-27T08:36:15.908Z,12.15
2023-03-27T08:38:45.382Z,12.10
2023-03-27T08:41:24.366Z,12.05
2023-03-27T08:44:04.044Z,12.04
2023-03-27T08:46:36.778Z,12.02
2023-03-27T08:49:05.354Z,12.00
2023-03-27T08:51:42.553Z,11.96
2023-03-27T08:54:22.447Z,11.96
2023-03-27T08:56:52.474Z,11.97
2023-03-27T08:59:22.111Z,11.95
2023-03-27T09:01:55.302Z,11.95
2023-03-27T09:04:23.425Z,11.94
2023-03-27T09:06:51.807Z,11.93
2023-03-27T09:09:27.150Z,11.94
2023-03-27T09:12:02.790Z,11.92
2023-03-27T09:14:40.519Z,11.89
2023-03-27T09:17:17.315Z,11.86
2023-03-27T09:19:49.521Z,11.84
2023-03-27T09:22:27.873Z,11.80
2023-03-27T09:25:26.473Z,11.79
2023-03-27T09:28:01.631Z,11.79
2023-03-27T09:30:39.936Z,11.79
2023-03-27T09:33:13.045Z,11.78
2023-03-27T09:35:42.951Z,11.77
2023-03-27T09:38:31.565Z,11.78
2023-03-27T09:41:07.242Z,11.78
2023-03-27T09:43:45.321Z,11.82
2023-03-27T09:46:17.535Z,11.86
2023-03-27T09:48:55.898Z,11.87
2023-03-27T09:51:39.707Z,11.89
2023-03-27T09:54:14.352Z,11.96
2023-03-27T09:56:48.360Z,12.04
2023-03-27T09:59:30.644Z,12.10
2023-03-27T10:02:21.687Z,12.15
2023-03-27T10:05:01.480Z,12.20
2023-03-27T10:07:34.194Z,12.23
2023-03-27T10:10:19.869Z,12.28
2023-03-27T10:13:26.339Z,12.35
2023-03-27T10:16:05.961Z,12.40
2023-03-27T10:18:49.324Z,12.43
2023-03-27T10:21:23.603Z,12.43
2023-03-27T10:23:52.695Z,12.39
2023-03-27T10:26:37.579Z,12.34
2023-03-27T10:29:32.098Z,12.29
2023-03-27T10:32:01.132Z,12.23
2023-03-27T10:34:53.051Z,12.20
2023-03-27T10:37:56.205Z,12.21
2023-03-27T10:40:26.230Z,12.24
2023-03-27T10:42:59.557Z,12.29
2023-03-27T10:45:28.828Z,12.33
2023-03-27T10:48:00.941Z,12.35
2023-03-27T10:50:35.971Z,12.41
2023-03-27T10:53:09.810Z,12.49
2023-03-27T10:55:45.022Z,12.59
2023-03-27T10:58:23.632Z,12.69
2023-03-27T11:00:56.445Z,12.76
2023-03-27T11:03:34.702Z,12.76
2023-03-27T11:06:07.978Z,12.80
2023-03-27T11:08:38.140Z,12.77
2023-03-27T11:11:16.193Z,12.73
2023-03-27T11:13:47.864Z,12.68
2023-03-27T11:16:37.059Z,12.62
2023-03-27T11:19:48.295Z,12.61
2023-03-27T11:22:37.570Z,12.58
2023-03-27T11:25:07.730Z,12.55
2023-03-27T11:27:41.313Z,12.47
2023-03-27T11:30:28.949Z,12.32
2023-03-27T11:33:17.090Z,12.20
2023-03-27T11:35:50.209Z,12.09
2023-03-27T11:39:04.215Z,12.02
2023-03-27T11:41:32.156Z,11.97
2023-03-27T11:44:02.082Z,11.96
2023-03-27T11:47:12.897Z,11.97
2023-03-27T11:49:50.506Z,11.93
2023-03-27T11:52:22.209Z,11.86
2023-03-27T11:54:50.095Z,11.80
2023-03-27T11:57:26.400Z,11.78
2023-03-27T12:00:07.587Z,11.72
2023-03-27T12:02:56.535Z,11.66
2023-03-27T12:05:31.945Z,11.63
2023-03-27T12:08:08.809Z,11.61
2023-03-27T12:10:43.609Z,11.70
2023-03-27T12:13:42.107Z,11.84
2023-03-27T12:16:22.357Z,11.92
2023-03-27T12:19:08.051Z,11.86
2023-03-27T12:21:51.675Z,11.76
2023-03-27T12:24:20.004Z,11.66
2023-03-27T12:27:11.185Z,11.68
2023-03-27T12:29:53.612Z,11.86
2023-03-27T12:32:25.697Z,12.02
2023-03-27T12:34:56.917Z,12.03
2023-03-27T12:37:31.144Z,11.98
2023-03-27T12:40:00.296Z,11.99
2023-03-27T12:42:53.870Z,12.00
2023-03-27T12:45:27.000Z,11.91
2023-03-27T12:48:07.819Z,11.91
2023-03-27T12:50:46.881Z,11.97
2023-03-27T12:53:21.643Z,11.97
2023-03-27T12:56:09.851Z,11.93
2023-03-27T12:58:38.639Z,11.82
2023-03-27T13:01:36.306Z,11.75
2023-03-27T13:04:36.775Z,11.69
2023-03-27T13:07:24.577Z,11.59
2023-03-27T13:10:13.432Z,11.51
2023-03-27T13:13:00.666Z,11.42
2023-03-27T13:15:33.376Z,11.31
2023-03-27T13:18:08.536Z,11.30
2023-03-27T13:20:40.163Z,11.33
2023-03-27T13:23:17.798Z,11.38
2023-03-27T13:26:06.502Z,11.43
2023-03-27T13:28:39.559Z,11.52
2023-03-27T13:31:12.231Z,11.58
2023-03-27T13:34:16.355Z,11.68
2023-03-27T13:37:06.224Z,11.76
2023-03-27T13:39:40.407Z,11.75
2023-03-27T13:42:11.560Z,11.67
2023-03-27T13:45:04.623Z,11.62
2023-03-27T13:47:39.210Z,11.60
2023-03-27T13:50:14.655Z,11.70
2023-03-27T13:53:01.882Z,12.00
2023-03-27T13:55:57.024Z,12.24
2023-03-27T13:59:09.546Z,12.31
2023-03-27T14:01:56.031Z,12.23
2023-03-27T14:04:42.777Z,12.18
2023-03-27T14:07:11.498Z,12.10
2023-03-27T14:09:41.307Z,11.98
2023-03-27T14:12:38.176Z,11.89
2023-03-27T14:15:28.012Z,11.91
2023-03-27T14:18:16.138Z,11.97
2023-03-27T14:20:45.463Z,11.95
2023-03-27T14:23:22.495Z,11.89
2023-03-27T14:26:06.906Z,11.82
2023-03-27T14:28:42.561Z,11.78
2023-03-27T14:31:14.883Z,11.75
2023-03-27T14:34:13.537Z,11.71
2023-03-27T14:36:46.076Z,11.69
2023-03-27T14:39:26.101Z,11.63
2023-03-27T14:42:01.234Z,11.60
2023-03-27T14:44:31.404Z,11.59
2023-03-27T14:47:09.699Z,11.58
2023-03-27T14:49:45.349Z,11.55
2023-03-27T14:52:21.907Z,11.50
2023-03-27T14:55:13.798Z,11.47
2023-03-27T14:57:44.560Z,11.46
2023-03-27T15:00:16.557Z,11.44
2023-03-27T15:02:47.963Z,11.36
2023-03-27T15:05:18.250Z,11.33
2023-03-27T15:07:49.371Z,11.32
2023-03-27T15:10:40.819Z,11.34
2023-03-27T15:13:36.493Z,11.32
2023-03-27T15:16:06.846Z,11.29
2023-03-27T15:18:50.904Z,11.34
2023-03-27T15:21:26.242Z,11.37
2023-03-27T15:24:01.799Z,11.40
2023-03-27T15:26:31.639Z,11.40
2023-03-27T15:29:27.467Z,11.39
2023-03-27T15:31:56.717Z,11.29
2023-03-27T15:34:37.451Z,11.16
2023-03-27T15:37:10.040Z,10.96
2023-03-27T15:39:57.794Z,10.79
2023-03-27T15:42:31.862Z,10.63
2023-03-27T15:45:02.809Z,10.52
2023-03-27T15:47:32.389Z,10.39
2023-03-27T15:50:15.055Z,10.29
2023-03-27T15:52:50.700Z,10.26
2023-03-27T15:55:37.071Z,10.19
2023-03-27T15:58:23.462Z,10.09
2023-03-27T16:00:53.441Z,10.01
2023-03-27T16:03:23.277Z,9.99
2023-03-27T16:05:52.803Z,9.93
2023-03-27T16:08:29.497Z,9.89
2023-03-27T16:10:58.905Z,9.88
2023-03-27T16:13:33.415Z,9.86
2023-03-27T16:16:03.000Z,9.84
2023-03-27T16:18:35.042Z,9.78
2023-03-27T16:21:16.138Z,9.74
2023-03-27T16:23:44.303Z,9.68
2023-03-27T16:26:14.613Z,9.63
2023-03-27T16:28:42.817Z,9.58
2023-03-27T16:31:15.898Z,9.54
2023-03-27T16:33:45.349Z,9.49
2023-03-27T16:36:14.117Z,9.44
2023-03-27T16:38:43.910Z,9.38
2023-03-27T16:41:13.389Z,9.33
2023-03-27T16:43:41.749Z,9.27
2023-03-27T16:46:21.986Z,9.25
2023-03-27T16:48:51.381Z,9.22
2023-03-27T16:51:19.792Z,9.14
2023-03-27T16:53:47.803Z,9.04
2023-03-27T16:56:15.963Z,8.95
2023-03-27T16:58:43.999Z,8.91
2023-03-27T17:01:12.202Z,8.89
2023-03-27T17:03:40.118Z,8.92
2023-03-27T17:06:09.076Z,8.93
2023-03-27T17:08:37.371Z,8.94
2023-03-27T17:11:09.904Z,8.93
2023-03-27T17:13:40.814Z,8.92
2023-03-27T17:16:10.819Z,8.86
2023-03-27T17:18:38.880Z,8.83
2023-03-27T17:21:07.095Z,8.82
2023-03-27T17:23:36.238Z,8.83
2023-03-27T17:26:04.774Z,8.85
2023-03-27T17:28:32.870Z,8.88
2023-03-27T17:31:05.339Z,8.88
2023-03-27T17:33:33.994Z,8.86
2023-03-27T17:36:07.047Z,8.76
2023-03-27T17:38:35.033Z,8.63
2023-03-27T17:41:03.851Z,8.51
2023-03-27T17:43:32.046Z,8.40
2023-03-27T17:46:00.282Z,8.20
2023-03-27T17:48:28.462Z,7.97
2023-03-27T17:51:08.181Z,7.80
2023-03-27T17:53:38.123Z,7.69
2023-03-27T17:56:06.429Z,7.65
2023-03-27T17:58:34.579Z,7.62
2023-03-27T18:01:12.407Z,7.44
2023-03-27T18:03:40.349Z,7.12
2023-03-27T18:06:08.479Z,6.69
2023-03-27T18:08:36.869Z,6.24
2023-03-27T18:11:09.218Z,5.89
2023-03-27T18:13:37.564Z,5.68
2023-03-27T18:16:08.887Z,5.45
2023-03-27T18:18:38.839Z,5.18
2023-03-27T18:21:08.977Z,5.00
2023-03-27T18:23:45.581Z,4.90
2023-03-27T18:26:15.086Z,4.80
2023-03-27T18:28:43.217Z,4.62
2023-03-27T18:31:12.816Z,4.44
2023-03-27T18:33:41.092Z,4.27
2023-03-27T18:36:10.526Z,4.21
2023-03-27T18:38:40.314Z,4.15
2023-03-27T18:41:08.685Z,4.07
2023-03-27T18:43:36.777Z,3.96
2023-03-27T18:46:05.734Z,3.86
2023-03-27T18:48:33.898Z,3.71
2023-03-27T18:51:03.104Z,3.56
2023-03-27T18:53:31.797Z,3.47
2023-03-27T18:56:00.134Z,3.41
2023-03-27T18:58:28.749Z,3.34
2023-03-27T19:00:57.376Z,3.26
2023-03-27T19:03:26.368Z,3.23
2023-03-27T19:05:54.300Z,3.22
2023-03-27T19:08:22.462Z,3.20
2023-03-27T19:10:50.405Z,3.19
2023-03-27T19:13:21.250Z,3.14
2023-03-27T19:16:14.975Z,3.09
2023-03-27T19:19:03.800Z,3.06
2023-03-27T19:21:40.879Z,3.01
2023-03-27T19:24:17.921Z,2.99
2023-03-27T19:26:47.136Z,2.98
2023-03-27T19:29:15.198Z,2.97
2023-03-27T19:31:43.154Z,2.94
2023-03-27T19:34:10.864Z,2.93
2023-03-27T19:36:38.871Z,2.92
2023-03-27T19:39:07.475Z,2.90
2023-03-27T19:41:35.590Z,2.92
2023-03-27T19:44:04.043Z,2.91
2023-03-27T19:46:32.418Z,2.91
2023-03-27T19:49:00.266Z,2.95
2023-03-27T19:51:44.963Z,2.96
2023-03-27T19:54:14.077Z,2.91
2023-03-27T19:56:42.137Z,2.80
2023-03-27T19:59:15.312Z,2.79
2023-03-27T20:01:52.775Z,2.79
2023-03-27T20:04:20.983Z,2.79
2023-03-27T20:06:48.781Z,2.78
2023-03-27T20:09:16.453Z,2.79
2023-03-27T20:11:44.577Z,2.78
2023-03-27T20:14:12.430Z,2.77
2023-03-27T20:16:40.247Z,2.78
2023-03-27T20:19:09.571Z,2.75
2023-03-27T20:21:40.527Z,2.76
2023-03-27T20:24:12.628Z,2.77
2023-03-27T20:26:43.028Z,2.77
2023-03-27T20:29:18.977Z,2.71
2023-03-27T20:31:47.081Z,2.63
2023-03-27T20:34:19.618Z,2.57
2023-03-27T20:36:48.463Z,2.52
2023-03-27T20:39:27.616Z,2.40
2023-03-27T20:41:59.064Z,2.31
2023-03-27T20:44:35.096Z,2.24
2023-03-27T20:47:11.036Z,2.22
2023-03-27T20:49:41.693Z,2.14
2023-03-27T20:52:11.841Z,2.04
2023-03-27T20:54:39.755Z,1.96
2023-03-27T20:57:10.551Z,1.91
2023-03-27T20:59:38.531Z,1.85
2023-03-27T21:02:06.516Z,1.83
2023-03-27T21:04:34.330Z,1.82
2023-03-27T21:07:02.444Z,1.80
2023-03-27T21:09:30.468Z,1.79
2023-03-27T21:11:58.415Z,1.73
2023-03-27T21:14:26.556Z,1.66
2023-03-27T21:16:54.468Z,1.59
2023-03-27T21:19:22.471Z,1.55
2023-03-27T21:21:51.008Z,1.50
2023-03-27T21:24:19.555Z,1.47
2023-03-27T21:26:48.394Z,1.39
2023-03-27T21:29:16.412Z,1.33
2023-03-27T21:31:44.935Z,1.30
2023-03-27T21:34:12.855Z,1.28
2023-03-27T21:36:40.594Z,1.27
2023-03-27T21:39:11.126Z,1.25
2023-03-27T21:41:39.218Z,1.21
2023-03-27T21:44:07.166Z,1.20
2023-03-27T21:46:35.223Z,1.21
2023-03-27T21:49:03.104Z,1.19
2023-03-27T21:51:31.373Z,1.15
2023-03-27T21:53:59.143Z,1.13
2023-03-27T21:56:26.952Z,1.13
2023-03-27T21:58:57.457Z,1.14
2023-03-27T22:01:26.031Z,1.16
2023-03-27T22:03:54.345Z,1.20
2023-03-27T22:06:22.168Z,1.23
2023-03-27T22:08:50.172Z,1.22
2023-03-27T22:11:18.133Z,1.21
2023-03-27T22:13:47.049Z,1.22
2023-03-27T22:16:16.299Z,1.22
2023-03-27T22:18:44.427Z,1.18
2023-03-27T22:21:12.270Z,1.15
2023-03-27T22:23:40.252Z,1.16
2023-03-27T22:26:08.333Z,1.14
2023-03-27T22:28:36.414Z,1.11
2023-03-27T22:31:04.972Z,1.11
2023-03-27T22:33:32.764Z,1.12
2023-03-27T22:36:01.237Z,1.10
2023-03-27T22:38:30.841Z,1.06
2023-03-27T22:40:59.580Z,1.01
2023-03-27T22:43:28.279Z,1.02
2023-03-27T22:45:56.949Z,0.99
2023-03-27T22:48:25.207Z,0.98
2023-03-27T22:50:56.935Z,0.97
2023-03-27T22:53:25.196Z,0.99
2023-03-27T22:55:54.046Z,1.01
2023-03-27T22:58:22.209Z,1.02
2023-03-27T23:00:50.962Z,1.02
2023-03-27T23:03:19.545Z,1.04
2023-03-27T23:05:49.300Z,1.03
2023-03-27T23:08:18.348Z,1.03
2023-03-27T23:10:46.364Z,1.05
2023-03-27T23:13:14.404Z,1.07
2023-03-27T23:15:42.170Z,1.09
2023-03-27T23:18:10.059Z,1.11
2023-03-27T23:20:40.865Z,1.12
2023-03-27T23:23:08.709Z,1.13
2023-03-27T23:25:36.496Z,1.16
2023-03-27T23:28:04.324Z,1.15
2023-03-27T23:30:32.314Z,1.14
2023-03-27T23:33:00.332Z,1.15
2023-03-27T23:35:28.276Z,1.20
2023-03-27T23:37:57.091Z,1.23
2023-03-27T23:40:24.892Z,1.25
2023-03-27T23:42:52.649Z,1.22
2023-03-27T23:45:20.587Z,1.21
2023-03-27T23:47:48.473Z,1.21
2023-03-27T23:50:16.659Z,1.23
2023-03-27T23:52:44.744Z,1.25
2023-03-27T23:55:12.602Z,1.23
2023-03-27T23:57:40.449Z,1.25
